Time;durP1;ratioP1;P1;durP2;ratioP2;P2;SDS_P1;SDS_P2;PMS_P1;PMS_P2;Temp;Humidity;BMP_temperature;BMP_pressure;BME280_temperature;BME280_humidity;BME280_pressure;Samples;Min_cycle;Max_cycle;Signal;HPM_P1;HPM_P2
2023/10/14 00:00:24;;;;;;;18.60;5.50;;;;;;;16.37;75.40;99359.05;134096;1296;22419;-79
2023/10/14 00:03:27;;;;;;;17.40;6.40;;;;;;;16.42;75.24;99351.30;134043;1297;22391;-79
2023/10/14 00:10:17;;;;;;;9.20;5.10;;;;;;;16.50;74.70;99343.29;134073;1302;22432;-80
2023/10/14 00:13:24;;;;;;;10.70;5.70;;;;;;;16.54;74.52;99332.96;134117;1304;22449;-79
2023/10/14 00:17:04;;;;;;;;;;;;;;;;;;;;;
2023/10/14 00:24:50;;;;;;;;;;;;;;;;;;;;;
2023/10/14 00:28:12;;;;;;;16.20;5.20;;;;;;;16.49;74.35;99309.11;134086;1297;23215;-79
2023/10/14 00:31:19;;;;;;;17.40;5.60;;;;;;;16.40;74.49;99305.58;133978;1303;22489;-78
2023/10/14 00:34:50;;;;;;;19.00;6.00;;;;;;;16.27;74.50;99301.29;134102;1302;22494;-79
2023/10/14 00:38:46;;;;;;;12.20;6.00;;;;;;;16.16;74.62;99294.92;134076;1298;22335;-79
2023/10/14 00:41:50;;;;;;;13.60;6.50;;;;;;;16.07;74.78;99292.55;133811;1304;22397;-79
2023/10/14 00:44:53;;;;;;;20.30;7.90;;;;;;;16.02;74.85;99285.15;134083;1304;22409;-79
2023/10/14 00:48:46;;;;;;;;;;;;;;;;;;;;;
2023/10/14 00:52:27;;;;;;;12.90;6.80;;;;;;;15.62;75.21;99275.73;133689;1298;23359;-79
2023/10/14 00:56:18;;;;;;;15.10;6.90;;;;;;;15.36;75.56;99272.61;133774;1300;23576;-79
2023/10/14 00:59:14;;;;;;;20.90;6.20;;;;;;;15.13;75.79;99274.27;134094;1297;22452;-79
2023/10/14 01:03:48;;;;;;;14.80;5.90;;;;;;;14.91;76.12;99276.85;134104;1297;22216;-78
2023/10/14 01:10:42;;;;;;;15.60;6.20;;;;;;;14.54;77.07;99266.00;134100;1304;22465;-79
2023/10/14 01:14:10;;;;;;;11.50;5.60;;;;;;;14.40;77.64;99257.16;133927;1298;22491;-79
2023/10/14 01:18:01;;;;;;;12.30;6.00;;;;;;;14.34;78.14;99242.88;134085;1297;22445;-79
2023/10/14 01:21:01;;;;;;;11.30;5.80;;;;;;;14.18;77.97;99233.95;134107;1301;22482;-79
2023/10/14 01:24:15;;;;;;;16.60;7.20;;;;;;;14.09;78.28;99227.55;134100;1297;22418;-79
2023/10/14 01:36:37;;;;;;;15.40;6.10;;;;;;;13.70;78.69;99190.22;133357;1304;22516;-80
2023/10/14 01:39:50;;;;;;;15.20;6.30;;;;;;;13.59;78.84;99179.52;134091;1301;22941;-79
2023/10/14 01:43:37;;;;;;;14.00;5.60;;;;;;;13.46;79.05;99174.77;133922;1305;22415;-79
2023/10/14 01:46:55;;;;;;;21.40;6.10;;;;;;;13.39;79.54;99174.27;133889;1304;23552;-79
2023/10/14 01:50:46;;;;;;;12.30;5.80;;;;;;;13.36;79.88;99167.09;133877;1300;22386;-79
2023/10/14 01:54:02;;;;;;;11.90;6.20;;;;;;;13.31;80.01;99159.72;133886;1304;22385;-79
2023/10/14 01:57:25;;;;;;;13.70;6.20;;;;;;;13.24;80.39;99155.77;133784;1304;22391;-79
2023/10/14 02:00:37;;;;;;;14.20;6.20;;;;;;;13.22;80.59;99151.67;134111;1304;22517;-79
2023/10/14 02:03:54;;;;;;;14.60;6.30;;;;;;;13.21;80.77;99144.02;134084;1304;22352;-79
2023/10/14 02:07:14;;;;;;;20.10;6.60;;;;;;;13.21;80.79;99139.22;133796;1304;22210;-78
2023/10/14 02:15:13;;;;;;;15.40;6.00;;;;;;;13.21;81.08;99135.69;133851;1304;22459;-79
2023/10/14 02:18:55;;;;;;;18.10;5.70;;;;;;;13.26;81.35;99135.24;133478;1297;22481;-79
2023/10/14 02:22:26;;;;;;;12.40;6.30;;;;;;;13.33;81.63;99139.80;133850;1300;22974;-80
2023/10/14 02:29:58;;;;;;;10.90;5.60;;;;;;;13.51;81.61;99128.73;133874;1300;22534;-78
2023/10/14 02:33:20;;;;;;;13.50;6.30;;;;;;;13.57;81.68;99120.79;133853;1304;22530;-79
2023/10/14 02:36:50;;;;;;;11.30;5.70;;;;;;;13.58;81.59;99116.12;133947;1300;23300;-79
2023/10/14 02:40:23;;;;;;;12.70;5.80;;;;;;;13.56;81.56;99111.70;133807;1300;22378;-79
2023/10/14 02:43:48;;;;;;;15.50;6.30;;;;;;;13.53;81.53;99107.66;133965;1304;22361;-79
2023/10/14 02:47:48;;;;;;;;;;;;;;;;;;;;;
2023/10/14 02:51:43;;;;;;;20.50;5.10;;;;;;;13.39;81.24;99106.77;133807;1304;23236;-79
2023/10/14 02:59:27;;;;;;;;;;;;;;;;;;;;;
2023/10/14 03:03:26;;;;;;;13.40;6.50;;;;;;;13.17;81.67;99101.69;134056;1298;22349;-79
2023/10/14 03:07:09;;;;;;;28.60;9.90;;;;;;;13.07;81.62;99098.08;133938;1300;22429;-79
2023/10/14 03:11:09;;;;;;;;;;;;;;;;;;;;;
2023/10/14 03:14:40;;;;;;;21.50;9.00;;;;;;;13.10;82.31;99086.22;133944;1297;23126;-79
2023/10/14 03:17:51;;;;;;;21.70;6.90;;;;;;;13.16;82.48;99082.77;134069;1301;22497;-79
2023/10/14 03:22:03;;;;;;;;;;;;;;;;;;;;;
2023/10/14 03:25:08;;;;;;;15.80;5.40;;;;;;;13.21;82.12;99086.36;133783;1298;22392;-79
2023/10/14 03:28:39;;;;;;;14.60;6.10;;;;;;;13.18;82.05;99087.67;133897;1304;22350;-79
2023/10/14 03:36:22;;;;;;;16.20;6.40;;;;;;;13.08;82.46;99084.29;133849;1304;22373;-79
2023/10/14 03:39:41;;;;;;;19.80;6.00;;;;;;;13.10;82.72;99077.04;133915;1304;22480;-78
2023/10/14 03:43:34;;;;;;;17.90;6.60;;;;;;;13.14;82.79;99075.26;133969;1304;23270;-79
2023/10/14 03:47:02;;;;;;;21.00;6.60;;;;;;;13.09;82.76;99068.48;133863;1298;22481;-79
2023/10/14 03:51:41;;;;;;;19.50;7.40;;;;;;;13.06;83.16;99061.11;133886;1300;22257;-79
2023/10/14 03:54:50;;;;;;;22.00;7.60;;;;;;;13.19;83.69;99053.70;133809;1300;22270;-79
2023/10/14 03:58:31;;;;;;;16.70;7.00;;;;;;;13.41;83.69;99043.73;133979;1304;23007;-79
2023/10/14 04:05:20;;;;;;;16.20;6.70;;;;;;;13.68;83.12;99050.34;134051;1301;23151;-78
2023/10/14 04:08:54;;;;;;;17.00;6.20;;;;;;;13.75;82.94;99063.17;134069;1304;22322;-78
2023/10/14 04:12:01;;;;;;;19.40;7.00;;;;;;;13.76;82.76;99067.85;134020;1304;22434;-79
2023/10/14 04:19:57;;;;;;;15.20;6.60;;;;;;;13.84;82.67;99050.30;134075;1298;24395;-79
2023/10/14 04:22:38;;;;;;;13.10;6.50;;;;;;;13.90;82.45;99044.30;133965;1304;22982;-79
2023/10/14 04:26:13;;;;;;;;;;;;;;;;;;;;;
2023/10/14 04:30:19;;;;;;;20.60;7.10;;;;;;;13.92;82.42;99033.84;133942;1301;22426;-79
2023/10/14 04:34:07;;;;;;;17.50;6.40;;;;;;;13.99;82.59;99029.07;134058;1304;22371;-79
2023/10/14 04:37:53;;;;;;;12.20;7.00;;;;;;;14.11;82.56;99021.58;134016;1298;22396;-79
2023/10/14 04:41:16;;;;;;;14.60;7.30;;;;;;;14.18;82.37;99024.02;133975;1301;22253;-80
2023/10/14 04:45:12;;;;;;;;;;;;;;;;;;;;;
2023/10/14 04:48:28;;;;;;;13.90;7.20;;;;;;;14.37;82.11;99019.12;133804;1298;22292;-80
2023/10/14 04:51:56;;;;;;;;;;;;;;;;;;;;;
2023/10/14 04:55:18;;;;;;;16.20;7.50;;;;;;;14.53;81.84;99007.01;134051;1302;22297;-79
2023/10/14 04:58:24;;;;;;;14.80;7.40;;;;;;;14.57;81.71;99021.23;134043;1301;22389;-80
2023/10/14 05:01:59;;;;;;;;;;;;;;;;;;;;;
2023/10/14 05:05:08;;;;;;;15.40;7.60;;;;;;;14.60;81.45;99024.73;133965;1304;22448;-79
2023/10/14 05:08:16;;;;;;;17.90;8.20;;;;;;;14.62;81.39;99025.75;134059;1301;22376;-79
2023/10/14 05:11:23;;;;;;;15.00;6.90;;;;;;;14.63;81.39;99024.05;134026;1301;23223;-78
2023/10/14 05:15:39;;;;;;;21.50;8.70;;;;;;;14.66;81.30;99021.52;134014;1302;22282;-78
2023/10/14 05:21:57;;;;;;;13.90;7.40;;;;;;;14.71;81.35;99020.44;134004;1304;22500;-79
2023/10/14 05:25:27;;;;;;;20.20;8.00;;;;;;;14.81;81.61;99019.98;134053;1301;22446;-79
2023/10/14 05:29:37;;;;;;;24.00;8.30;;;;;;;15.00;81.52;99008.73;134066;1299;22525;-79
2023/10/14 05:32:49;;;;;;;;;;;;;;;;;;;;;
2023/10/14 05:41:32;;;;;;;19.10;8.50;;;;;;;15.93;80.70;99008.21;133823;1300;22878;-79
2023/10/14 05:44:14;;;;;;;13.50;7.70;;;;;;;16.36;79.79;99008.80;133966;1298;22524;-79
2023/10/14 05:47:46;;;;;;;15.60;8.00;;;;;;;16.72;79.20;99008.73;134013;1304;22374;-79
2023/10/14 05:51:15;;;;;;;;;;;;;;;;;;;;;
2023/10/14 05:59:06;;;;;;;14.20;6.90;;;;;;;17.75;76.72;99016.82;133806;1298;22214;-80
2023/10/14 06:02:58;;;;;;;12.70;6.70;;;;;;;18.09;75.86;99020.92;133885;1297;22418;-79
2023/10/14 06:06:21;;;;;;;15.90;6.70;;;;;;;18.44;74.95;99023.80;133879;1304;22427;-79
2023/10/14 06:13:43;;;;;;;14.90;6.90;;;;;;;18.97;72.55;99031.80;133917;1298;23639;-81
2023/10/14 06:17:15;;;;;;;11.20;6.40;;;;;;;19.11;71.46;99034.26;133999;1298;22454;-82
2023/10/14 06:21:01;;;;;;;;;;;;;;;;;;;;;
2023/10/14 06:24:36;;;;;;;14.40;6.10;;;;;;;19.16;70.24;99039.88;133722;1301;23082;-81
2023/10/14 06:28:56;;;;;;;16.10;6.40;;;;;;;19.11;69.65;99045.23;134178;1298;23148;-81
2023/10/14 06:32:02;;;;;;;;;;;;;;;;;;;;;
2023/10/14 06:35:47;;;;;;;12.30;5.80;;;;;;;19.15;69.16;99061.10;134150;1298;23159;-81
2023/10/14 06:39:12;;;;;;;;;;;;;;;;;;;;;
2023/10/14 06:42:31;;;;;;;13.10;6.30;;;;;;;19.35;68.45;99073.83;134140;1296;22490;-81
2023/10/14 06:46:19;;;;;;;16.90;6.00;;;;;;;19.18;68.27;99080.13;134165;1301;22306;-81
2023/10/14 06:50:15;;;;;;;13.60;5.90;;;;;;;18.95;68.09;99081.56;134163;1297;22560;-78
2023/10/14 06:53:36;;;;;;;13.50;5.80;;;;;;;18.73;68.13;99082.39;134136;1298;23103;-78
2023/10/14 06:56:49;;;;;;;14.10;6.30;;;;;;;18.53;68.11;99073.90;133646;1304;441823;-79
2023/10/14 07:01:07;;;;;;;10.70;6.60;;;;;;;18.37;67.91;99072.46;134092;1298;22407;-81
2023/10/14 07:04:06;;;;;;;;;;;;;;;;;;;;;
2023/10/14 07:08:05;;;;;;;14.40;6.50;;;;;;;18.03;68.25;99071.73;134132;1298;23213;-80
2023/10/14 07:12:28;;;;;;;;;;;;;;;;;;;;;
2023/10/14 07:16:17;;;;;;;12.70;6.30;;;;;;;17.85;68.34;99081.41;134020;1298;22380;-77
2023/10/14 07:20:10;;;;;;;14.30;6.80;;;;;;;17.83;68.31;99085.45;133960;1298;22427;-79
2023/10/14 07:28:32;;;;;;;;;;;;;;;;;;;;;
2023/10/14 07:32:09;;;;;;;11.40;7.00;;;;;;;17.67;68.85;99069.73;133928;1298;22284;-78
2023/10/14 07:35:33;;;;;;;12.70;7.10;;;;;;;17.59;68.95;99063.50;133957;1298;23352;-80
2023/10/14 07:47:07;;;;;;;16.70;7.10;;;;;;;17.56;69.77;99057.58;133037;1307;23236;-80
2023/10/14 07:50:34;;;;;;;17.00;7.10;;;;;;;17.61;69.67;99049.05;133151;1299;22359;-79
2023/10/14 07:54:23;;;;;;;15.40;7.00;;;;;;;17.67;69.53;99046.17;133976;1295;23499;-78
2023/10/14 07:57:29;;;;;;;13.50;6.60;;;;;;;17.79;69.28;99042.97;133897;1297;23032;-78
2023/10/14 08:00:50;;;;;;;15.80;7.30;;;;;;;17.89;69.29;99042.27;133613;1297;22417;-78
2023/10/14 08:04:28;;;;;;;;;;;;;;;;;;;;;
2023/10/14 08:07:46;;;;;;;17.10;6.50;;;;;;;18.19;69.01;99036.83;133671;1297;22608;-79
2023/10/14 08:11:50;;;;;;;12.10;6.30;;;;;;;18.33;68.32;99036.95;133834;1300;22372;-82
2023/10/14 08:15:10;;;;;;;12.70;6.80;;;;;;;18.45;68.07;99038.27;133948;1297;22377;-83
2023/10/14 08:19:31;;;;;;;11.40;6.50;;;;;;;18.62;67.65;99031.34;133949;1297;22290;-80
2023/10/14 08:22:48;;;;;;;14.70;6.10;;;;;;;18.90;67.62;99030.78;133681;1298;22309;-83
2023/10/14 08:26:02;;;;;;;17.70;7.20;;;;;;;19.09;67.03;99025.40;133957;1304;22467;-83
2023/10/14 08:29:12;;;;;;;17.10;6.50;;;;;;;19.45;66.88;99026.46;133811;1297;22295;-84
2023/10/14 08:33:09;;;;;;;;;;;;;;;;;;;;;
2023/10/14 08:36:40;;;;;;;;;;;;;;;;;;;;;
2023/10/14 08:40:32;;;;;;;16.10;6.30;;;;;;;20.11;64.76;99031.27;133925;1297;22251;-85
2023/10/14 08:43:44;;;;;;;10.50;6.30;;;;;;;20.03;64.69;99034.48;133917;1300;22299;-76
2023/10/14 08:46:49;;;;;;;14.30;6.30;;;;;;;20.01;64.33;99038.98;133964;1294;22394;-76
2023/10/14 08:50:17;;;;;;;12.40;5.70;;;;;;;20.02;64.18;99037.05;133976;1305;22428;-75
2023/10/14 08:53:30;;;;;;;15.10;6.10;;;;;;;20.05;64.02;99040.91;133811;1297;23546;-76
2023/10/14 09:00:26;;;;;;;13.90;6.10;;;;;;;20.18;63.63;99052.22;133316;1303;22593;-76
2023/10/14 09:03:38;;;;;;;14.20;6.70;;;;;;;20.18;63.62;99053.78;133304;1302;22447;-74
2023/10/14 09:06:42;;;;;;;13.10;6.00;;;;;;;20.18;63.30;99051.73;133387;1303;23156;-73
2023/10/14 09:09:53;;;;;;;18.60;6.30;;;;;;;20.17;63.01;99050.39;133411;1303;22539;-71
2023/10/14 09:13:16;;;;;;;14.40;6.20;;;;;;;20.15;63.02;99054.20;133388;1304;22566;-72
2023/10/14 09:16:44;;;;;;;;;;;;;;;;;;;;;
2023/10/14 09:19:59;;;;;;;11.00;6.70;;;;;;;20.13;62.60;99061.13;133323;1308;22463;-74
2023/10/14 09:23:31;;;;;;;14.60;6.20;;;;;;;20.10;62.94;99061.43;133361;1303;23423;-72
2023/10/14 09:26:46;;;;;;;13.20;6.60;;;;;;;20.11;62.93;99063.91;133448;1303;22985;-73
2023/10/14 09:30:03;;;;;;;12.90;5.90;;;;;;;20.10;62.49;99065.50;133413;1303;22452;-75
2023/10/14 09:33:17;;;;;;;13.80;6.10;;;;;;;20.12;62.85;99064.99;133842;1303;22394;-75
2023/10/14 09:36:30;;;;;;;15.20;6.20;;;;;;;20.15;62.45;99067.48;133485;1299;22509;-76
2023/10/14 09:39:57;;;;;;;10.30;5.50;;;;;;;20.15;62.31;99070.55;133803;1298;23042;-74
2023/10/14 09:43:04;;;;;;;12.00;5.60;;;;;;;20.15;62.42;99069.80;133702;1298;22273;-76
2023/10/14 09:46:21;;;;;;;11.00;5.50;;;;;;;20.18;62.26;99071.39;133850;1299;22462;-75
2023/10/14 09:49:39;;;;;;;12.50;5.90;;;;;;;20.26;62.14;99066.09;133658;1299;22447;-73
2023/10/14 09:53:01;;;;;;;9.80;5.20;;;;;;;20.33;61.79;99063.95;133900;1305;22440;-72
2023/10/14 09:56:25;;;;;;;13.20;5.30;;;;;;;20.40;61.75;99060.39;133823;1299;22522;-73
2023/10/14 09:59:46;;;;;;;13.60;5.70;;;;;;;20.50;61.20;99055.25;133880;1295;22376;-73
2023/10/14 10:03:23;;;;;;;9.30;4.90;;;;;;;20.62;61.21;99058.71;133872;1298;23164;-75
2023/10/14 10:07:06;;;;;;;10.30;5.00;;;;;;;20.77;61.17;99057.36;133876;1299;22375;-75
2023/10/14 10:10:49;;;;;;;14.20;5.40;;;;;;;20.97;60.60;99057.32;133820;1298;22549;-74
2023/10/14 10:14:04;;;;;;;9.40;5.00;;;;;;;21.13;59.77;99052.17;133868;1299;22279;-76
2023/10/14 10:17:30;;;;;;;11.30;5.30;;;;;;;21.28;60.10;99048.38;133788;1297;22395;-79
2023/10/14 10:20:36;;;;;;;9.20;5.10;;;;;;;21.80;59.68;99050.90;133556;1300;22273;-75
2023/10/14 10:23:43;;;;;;;11.70;5.00;;;;;;;22.23;59.25;99053.00;133795;1300;22496;-79
2023/10/14 10:27:11;;;;;;;8.90;5.00;;;;;;;22.39;58.96;99046.26;133997;1299;23611;-74
2023/10/14 10:30:22;;;;;;;13.40;5.60;;;;;;;22.43;58.03;99044.91;133664;1302;22869;-78
2023/10/14 10:34:03;;;;;;;9.40;5.10;;;;;;;22.44;57.73;99047.55;133666;1303;22425;-73
2023/10/14 10:37:27;;;;;;;11.80;5.30;;;;;;;22.60;57.76;99046.14;133996;1299;22500;-74
2023/10/14 10:40:44;;;;;;;;;;;;;;;;;;;;;
2023/10/14 10:44:00;;;;;;;8.40;5.20;;;;;;;22.79;56.05;99034.13;133894;1297;22377;-74
2023/10/14 10:48:00;;;;;;;;;;;;;;;;;;;;;
2023/10/14 10:51:42;;;;;;;10.20;5.10;;;;;;;22.51;55.36;99035.92;133742;1297;23337;-75
2023/10/14 10:54:56;;;;;;;10.40;5.00;;;;;;;22.35;55.72;99037.88;134031;1298;23356;-76
2023/10/14 10:58:31;;;;;;;7.50;4.30;;;;;;;22.17;55.60;99051.91;133787;1289;22364;-76
2023/10/14 11:01:50;;;;;;;10.70;5.20;;;;;;;22.01;55.99;99051.61;133771;1297;22387;-75
2023/10/14 11:05:39;;;;;;;13.60;4.90;;;;;;;21.85;55.77;99051.73;133849;1298;22464;-76
2023/10/14 11:08:50;;;;;;;14.70;5.00;;;;;;;21.71;55.77;99053.15;134036;1300;22448;-77
2023/10/14 11:16:41;;;;;;;;;;;;;;;;;;;;;
2023/10/14 11:20:07;;;;;;;13.00;5.00;;;;;;;21.45;56.30;99084.52;133743;1299;23457;-74
2023/10/14 11:23:12;;;;;;;11.50;5.00;;;;;;;21.28;56.38;99120.41;134113;1297;22483;-76
2023/10/14 11:26:23;;;;;;;15.90;5.30;;;;;;;20.99;56.62;99137.54;133826;1297;22373;-76
2023/10/14 11:29:36;;;;;;;8.50;4.80;;;;;;;20.64;57.23;99140.10;134035;1297;22436;-77
2023/10/14 11:33:12;;;;;;;11.10;5.50;;;;;;;20.27;58.00;99133.54;133911;1297;23166;-78
2023/10/14 11:37:15;;;;;;;10.10;4.80;;;;;;;19.95;58.84;99150.15;133903;1297;22555;-79
2023/10/14 11:40:18;;;;;;;10.60;5.10;;;;;;;19.67;59.82;99163.73;133864;1297;22388;-76
2023/10/14 11:43:23;;;;;;;11.90;4.60;;;;;;;19.40;60.82;99179.29;134077;1299;23010;-76
2023/10/14 11:46:52;;;;;;;15.20;5.00;;;;;;;19.14;62.01;99192.94;133849;1297;22471;-76
2023/10/14 11:50:17;;;;;;;16.40;5.00;;;;;;;18.86;62.92;99200.21;133868;1297;22469;-79
2023/10/14 11:53:47;;;;;;;9.30;4.90;;;;;;;18.64;63.97;99210.20;134017;1297;22328;-78
2023/10/14 11:56:52;;;;;;;13.10;4.70;;;;;;;18.36;65.28;99224.27;133758;1304;22247;-77
2023/10/14 11:59:59;;;;;;;11.50;5.40;;;;;;;18.15;66.06;99231.81;134078;1302;22141;-76
2023/10/14 12:03:00;;;;;;;12.00;5.50;;;;;;;17.95;66.90;99241.70;134070;1297;22379;-77
2023/10/14 12:06:04;;;;;;;9.20;5.00;;;;;;;17.77;68.12;99246.57;133977;1297;22385;-75
2023/10/14 12:09:10;;;;;;;5.30;3.30;;;;;;;17.59;69.07;99262.89;133865;1300;23018;-76
2023/10/14 12:12:26;;;;;;;5.30;3.10;;;;;;;17.39;69.73;99271.37;133800;1297;22268;-81
2023/10/14 12:20:10;;;;;;;6.30;3.00;;;;;;;16.96;71.47;99282.84;133839;1298;23224;-84
2023/10/14 12:24:27;;;;;;;;;;;;;;;;;;;;;
2023/10/14 12:27:39;;;;;;;3.00;2.30;;;;;;;16.65;74.37;99299.89;134055;1296;23215;-85
2023/10/14 12:30:41;;;;;;;3.30;1.80;;;;;;;16.49;74.50;99309.52;133798;1297;22272;-82
2023/10/14 12:33:43;;;;;;;3.30;2.30;;;;;;;16.38;75.25;99325.17;134041;1301;22357;-84
2023/10/14 12:37:06;;;;;;;;;;;;;;;;;;;;;
2023/10/14 12:40:39;;;;;;;2.00;1.80;;;;;;;16.15;76.75;99325.94;134019;1297;22164;-87
2023/10/14 12:43:49;;;;;;;2.70;1.80;;;;;;;16.00;77.63;99328.18;133877;1304;22365;-86
2023/10/14 12:51:25;;;;;;;;;;;;;;;;;;;;;
2023/10/14 12:54:40;;;;;;;2.20;1.60;;;;;;;15.61;79.97;99355.50;133836;1297;22483;-84
2023/10/14 12:58:08;;;;;;;1.50;1.40;;;;;;;15.36;79.45;99374.44;133869;1300;22215;-85
2023/10/14 13:01:33;;;;;;;3.10;1.00;;;;;;;15.01;78.43;99382.48;133951;1297;22320;-84
2023/10/14 13:09:00;;;;;;;;;;;;;;;;;;;;;
2023/10/14 13:12:44;;;;;;;4.50;1.00;;;;;;;14.03;77.74;99380.63;133912;1297;22412;-86
2023/10/14 13:16:06;;;;;;;1.10;0.70;;;;;;;13.82;77.82;99381.75;133652;1302;22256;-84
2023/10/14 13:20:15;;;;;;;;;;;;;;;;;;;;;
2023/10/14 13:23:50;;;;;;;5.10;1.20;;;;;;;13.64;78.50;99404.50;133816;1300;22352;-81
2023/10/14 13:27:40;;;;;;;2.40;1.70;;;;;;;13.61;78.86;99411.64;133851;1296;22389;-82
2023/10/14 13:30:49;;;;;;;2.00;1.30;;;;;;;13.56;79.20;99417.54;133441;1303;23038;-82
2023/10/14 13:35:16;;;;;;;3.40;1.50;;;;;;;13.49;79.02;99422.81;133438;1303;22394;-83
2023/10/14 13:39:06;;;;;;;;;;;;;;;;;;;;;
2023/10/14 13:42:38;;;;;;;2.20;1.50;;;;;;;13.24;79.69;99426.95;133252;1308;22546;-84
2023/10/14 13:46:31;;;;;;;3.40;1.40;;;;;;;13.16;79.80;99443.73;133153;1303;22558;-81
2023/10/14 13:50:19;;;;;;;;;;;;;;;;;;;;;
2023/10/14 13:53:48;;;;;;;4.90;2.20;;;;;;;13.16;80.60;99443.31;133408;1303;22311;-82
2023/10/14 13:57:03;;;;;;;5.60;1.70;;;;;;;13.17;80.64;99445.17;133456;1301;22449;-80
2023/10/14 14:00:18;;;;;;;5.30;1.70;;;;;;;13.14;80.68;99446.30;133358;1302;22448;-80
2023/10/14 14:04:09;;;;;;;3.20;2.00;;;;;;;13.14;80.77;99444.95;133882;1297;22451;-81
2023/10/14 14:07:58;;;;;;;6.10;2.50;;;;;;;13.14;80.83;99442.24;133874;1304;22284;-82
2023/10/14 14:11:35;;;;;;;10.00;2.70;;;;;;;13.14;80.98;99446.99;133930;1300;22287;-78
2023/10/14 14:15:57;;;;;;;5.30;3.00;;;;;;;13.12;81.14;99447.45;133891;1300;23675;-85
2023/10/14 14:24:04;;;;;;;;;;;;;;;;;;;;;
2023/10/14 14:27:11;;;;;;;8.00;2.80;;;;;;;13.10;81.86;99444.77;133517;1301;22413;-86
2023/10/14 14:31:00;;;;;;;3.50;2.10;;;;;;;13.16;81.96;99449.22;133516;1307;23163;-81
2023/10/14 14:35:23;;;;;;;6.20;2.30;;;;;;;13.27;82.24;99462.56;133497;1302;22507;-81
2023/10/14 14:38:11;;;;;;;6.10;2.50;;;;;;;13.37;82.69;99468.17;133272;1301;22934;-80
2023/10/14 14:41:25;;;;;;;5.70;1.90;;;;;;;13.41;82.44;99471.88;133744;1300;22413;-80
2023/10/14 14:45:47;;;;;;;;;;;;;;;;;;;;;
2023/10/14 14:49:13;;;;;;;4.70;2.20;;;;;;;13.40;82.21;99478.67;133376;1301;22295;-79
2023/10/14 14:52:42;;;;;;;4.90;3.10;;;;;;;13.38;82.21;99481.98;133719;1301;22243;-80
2023/10/14 14:57:18;;;;;;;10.80;6.90;;;;;;;13.35;82.29;99480.63;133738;1307;22517;-79
2023/10/14 15:00:14;;;;;;;7.80;5.00;;;;;;;13.31;82.36;99489.10;133740;1299;22502;-78
2023/10/14 15:03:30;;;;;;;6.20;3.20;;;;;;;13.27;82.47;99492.08;133932;1297;22407;-79
2023/10/14 15:07:00;;;;;;;;;;;;;;;;;;;;;
2023/10/14 15:11:04;;;;;;;12.10;6.70;;;;;;;13.17;82.54;99509.17;133875;1297;22382;-79
2023/10/14 15:14:06;;;;;;;6.20;3.20;;;;;;;13.13;82.71;99508.66;133846;1291;22516;-77
2023/10/14 15:17:19;;;;;;;10.20;5.70;;;;;;;13.10;83.47;99508.83;134030;1297;23262;-81
2023/10/14 15:20:45;;;;;;;10.00;5.90;;;;;;;13.16;83.28;99504.38;134048;1298;22360;-78
2023/10/14 15:24:37;;;;;;;12.10;6.00;;;;;;;13.11;83.03;99494.68;133888;1299;22438;-81
2023/10/14 15:28:08;;;;;;;6.20;3.50;;;;;;;13.08;82.99;99498.68;134030;1297;23220;-78
2023/10/14 15:31:37;;;;;;;;;;;;;;;;;;;;;
2023/10/14 15:35:30;;;;;;;;;;;;;;;;;;;;;
2023/10/14 15:39:42;;;;;;;;;;;;;;;12.98;83.04;99517.29;134080;1298;22461;-79
2023/10/14 15:47:30;;;;;;;5.30;2.70;;;;;;;12.95;83.13;99517.67;133927;1297;23183;-78
2023/10/14 15:51:10;;;;;;;;;;;;;;;;;;;;;
2023/10/14 15:54:21;;;;;;;6.20;2.50;;;;;;;12.94;83.28;99535.55;134022;1299;22382;-78
2023/10/14 15:57:34;;;;;;;6.50;3.00;;;;;;;12.93;83.28;99533.41;134054;1298;22786;-80
2023/10/14 16:00:49;;;;;;;8.10;3.70;;;;;;;12.92;83.26;99525.09;134041;1297;22462;-78
2023/10/14 16:04:00;;;;;;;7.70;3.30;;;;;;;12.92;83.29;99519.10;134045;1297;23095;-80
2023/10/14 16:07:19;;;;;;;10.00;4.10;;;;;;;12.90;83.35;99522.19;134064;1304;22521;-80
2023/10/14 16:15:40;;;;;;;;;;;;;;;;;;;;;
2023/10/14 16:19:07;;;;;;;13.10;5.60;;;;;;;12.81;83.59;99538.25;133768;1298;22396;-80
2023/10/14 16:22:20;;;;;;;11.20;5.20;;;;;;;12.78;83.54;99544.70;134058;1300;22280;-79
2023/10/14 16:25:32;;;;;;;9.60;5.00;;;;;;;12.76;83.62;99551.36;134048;1297;22316;-79
2023/10/14 16:28:41;;;;;;;7.60;4.10;;;;;;;12.74;83.68;99559.20;133773;1302;22360;-80
2023/10/14 16:31:48;;;;;;;7.60;4.10;;;;;;;12.71;83.67;99550.35;134063;1300;22545;-79
2023/10/14 16:34:54;;;;;;;8.80;4.00;;;;;;;12.69;83.71;99531.45;134063;1297;23242;-80
2023/10/14 16:38:00;;;;;;;10.10;4.30;;;;;;;12.62;83.68;99526.03;134052;1297;22449;-81
2023/10/14 16:41:40;;;;;;;11.60;4.60;;;;;;;12.58;83.89;99532.64;133936;1300;22468;-80
2023/10/14 16:44:44;;;;;;;12.50;4.50;;;;;;;12.58;83.89;99539.27;133903;1298;22544;-78
2023/10/14 16:47:50;;;;;;;19.30;11.40;;;;;;;12.59;83.80;99556.39;134012;1303;22248;-76
2023/10/14 16:51:06;;;;;;;20.20;10.30;;;;;;;12.59;83.78;99557.39;134073;1297;23008;-79
2023/10/14 16:54:19;;;;;;;18.80;10.50;;;;;;;12.59;83.79;99558.12;134002;1297;23357;-78
2023/10/14 17:02:27;;;;;;;;;;;;;;;;;;;;;
2023/10/14 17:06:31;;;;;;;;;;;;;;;;;;;;;
2023/10/14 17:09:53;;;;;;;11.80;6.70;;;;;;;12.47;83.89;99603.50;133709;1298;23272;-78
2023/10/14 17:13:10;;;;;;;14.00;6.20;;;;;;;12.41;83.90;99607.41;134058;1297;22280;-78
2023/10/14 17:16:20;;;;;;;11.30;5.50;;;;;;;12.39;83.92;99617.73;134030;1290;22459;-78
2023/10/14 17:19:26;;;;;;;7.50;4.50;;;;;;;12.38;83.69;99615.37;134058;1297;23403;-78
2023/10/14 17:22:30;;;;;;;8.30;3.80;;;;;;;12.35;83.66;99610.36;133806;1297;22515;-78
2023/10/14 17:26:06;;;;;;;;;;;;;;;;;;;;;
2023/10/14 17:29:36;;;;;;;6.60;4.10;;;;;;;12.30;83.30;99631.26;133967;1299;22468;-78
2023/10/14 17:33:13;;;;;;;7.60;3.40;;;;;;;12.28;83.16;99625.45;134055;1299;22441;-78
2023/10/14 17:37:10;;;;;;;;;;;;;;;;;;;;;
2023/10/14 17:41:10;;;;;;;6.00;2.90;;;;;;;12.19;83.11;99632.33;133805;1300;24618;-79
2023/10/14 17:45:15;;;;;;;;;;;;;;;;;;;;;
2023/10/14 17:48:22;;;;;;;8.40;3.60;;;;;;;12.14;82.91;99640.02;134025;1297;22263;-78
2023/10/14 17:52:11;;;;;;;;;;;;;;;;;;;;;
2023/10/14 17:56:07;;;;;;;;;;;;;;;;;;;;;
2023/10/14 17:59:17;;;;;;;8.80;3.50;;;;;;;12.06;82.95;99625.73;134024;1296;22455;-78
2023/10/14 18:03:20;;;;;;;8.80;4.10;;;;;;;12.02;82.79;99634.56;134004;1298;22460;-78
2023/10/14 18:06:52;;;;;;;9.60;4.20;;;;;;;12.00;82.83;99620.39;133990;1300;22514;-79
2023/10/14 18:10:37;;;;;;;10.30;4.00;;;;;;;11.99;82.86;99614.16;133841;1297;25667;-79
2023/10/14 18:13:58;;;;;;;8.30;3.70;;;;;;;11.94;82.88;99630.95;134029;1300;23648;-80
2023/10/14 18:21:37;;;;;;;11.80;3.70;;;;;;;11.86;82.81;99638.35;133817;1304;22857;-79
2023/10/14 18:29:45;;;;;;;7.90;3.70;;;;;;;11.79;82.79;99645.77;133644;1297;22427;-79
2023/10/14 18:33:08;;;;;;;8.10;3.50;;;;;;;11.76;82.66;99667.06;134033;1298;22436;-79
2023/10/14 18:36:42;;;;;;;7.60;3.20;;;;;;;11.74;82.57;99671.91;133661;1305;23467;-80
2023/10/14 18:40:43;;;;;;;;;;;;;;;;;;;;;
2023/10/14 18:44:20;;;;;;;9.30;3.50;;;;;;;11.69;82.46;99657.13;133824;1304;22355;-79
2023/10/14 18:47:56;;;;;;;6.80;3.10;;;;;;;11.66;82.23;99671.81;134012;1297;22515;-79
2023/10/14 18:51:31;;;;;;;12.20;3.80;;;;;;;11.61;82.38;99676.45;133736;1298;22376;-80
2023/10/14 18:54:48;;;;;;;7.90;3.70;;;;;;;11.55;82.41;99670.88;133670;1302;282241;-79
2023/10/14 18:58:27;;;;;;;;;;;;;;;;;;;;;
2023/10/14 19:02:08;;;;;;;;;;;;;;;;;;;;;
2023/10/14 19:09:53;;;;;;;8.80;3.30;;;;;;;11.44;82.07;99671.23;133514;1298;22260;-79
2023/10/14 19:13:35;;;;;;;;;;;;;;;;;;;;;
2023/10/14 19:21:41;;;;;;;;;;;;;;;;;;;;;
2023/10/14 19:25:14;;;;;;;;;;;;;;;;;;;;;
2023/10/14 19:28:37;;;;;;;;;;;;;;;;;;;;;
2023/10/14 19:32:08;;;;;;;12.90;3.80;;;;;;;11.28;81.65;99705.61;133728;1298;22266;-79
2023/10/14 19:36:37;;;;;;;8.60;3.70;;;;;;;11.21;81.35;99713.40;133834;1296;22436;-81
2023/10/14 19:40:35;;;;;;;10.00;3.40;;;;;;;11.11;81.28;99707.80;133797;1303;23121;-81
2023/10/14 19:44:26;;;;;;;;;;;;;;;;;;;;;
2023/10/14 19:49:12;;;;;;;9.10;3.70;;;;;;;10.95;80.95;99701.63;133909;1298;22574;-79
2023/10/14 19:52:05;;;;;;;8.40;3.20;;;;;;;10.89;80.73;99700.98;133509;1299;23139;-80
2023/10/14 19:55:21;;;;;;;8.40;3.40;;;;;;;10.81;80.65;99704.24;133862;1297;23458;-79
2023/10/14 19:58:35;;;;;;;8.80;3.40;;;;;;;10.76;80.72;99704.05;133871;1297;22482;-79